
<gpx xmlns="http://www.topografix.com/GPX/1/1" xmlns:gpxx="http://www.garmin.com/xmlschemas/GpxExtensions/v3" xmlns:wptx1="http://www.garmin.com/xmlschemas/WaypointExtension/v1" xmlns:xsi="http://www.w3.org/2001/XMLSchema-instance" version="1.1" creator="Adze - https://getadze.com/" xsi:schemaLocation="http://www.topografix.com/GPX/1/1 http://www.topografix.com/GPX/1/1/gpx.xsd http://www.garmin.com/xmlschemas/GpxExtensions/v3 http://www8.garmin.com/xmlschemas/GpxExtensionsv3.xsd http://www.garmin.com/xmlschemas/WaypointExtension/v1 http://www8.garmin.com/xmlschemas/WaypointExtensionv1.xsd">
    <metadata>
        <name>Untitled Document</name>
        <link href="http://www.garmin.com"></link>
        <time>2018-03-06T04:03:09.880Z</time>
    </metadata>
    <wpt lon="99.148755" lat="14.107432">
        <ele>52.000000</ele>
        <name>Suan Sri Resort</name>
        <cmt>28-JUL-06 8:51:12</cmt>
        <desc>28-JUL-06 8:51:12</desc>
        <sym>Block, Blue</sym>
        <type>user</type>
        <extensions>
            <gpxx:WaypointExtension>
                <gpxx:DisplayMode>SymbolAndName</gpxx:DisplayMode>
            </gpxx:WaypointExtension>
            <wptx1:WaypointExtension>
                <wptx1:DisplayMode>SymbolAndName</wptx1:DisplayMode>
            </wptx1:WaypointExtension>
        </extensions>
    </wpt>
    <trk>
        <name>July 2006 - Sunday</name>
        <extensions>
            <gpxx:TrackExtension>
                <gpxx:DisplayColor>DarkMagenta</gpxx:DisplayColor>
            </gpxx:TrackExtension>
        </extensions>
        <trkseg>
            <trkpt lon="99.148813" lat="14.107591">
                <ele>53.009766</ele>
                <time>2006-07-30T03:06:33Z</time>
            </trkpt>
            <trkpt lon="99.148833" lat="14.107641">
                <ele>53.971191</ele>
                <time>2006-07-30T03:06:44Z</time>
            </trkpt>
            <trkpt lon="99.148870" lat="14.107977">
                <ele>49.645264</ele>
                <time>2006-07-30T03:06:59Z</time>
            </trkpt>
            <trkpt lon="99.149069" lat="14.108563">
                <ele>51.567871</ele>
                <time>2006-07-30T03:07:23Z</time>
            </trkpt>
            <trkpt lon="99.149332" lat="14.108693">
                <ele>56.855103</ele>
                <time>2006-07-30T03:07:42Z</time>
            </trkpt>
            <trkpt lon="99.149587" lat="14.108793">
                <ele>62.142334</ele>
                <time>2006-07-30T03:08:02Z</time>
            </trkpt>
            <trkpt lon="99.149826" lat="14.109000">
                <ele>69.832886</ele>
                <time>2006-07-30T03:08:22Z</time>
            </trkpt>
            <trkpt lon="99.150131" lat="14.109018">
                <ele>73.197632</ele>
                <time>2006-07-30T03:08:34Z</time>
            </trkpt>
            <trkpt lon="99.150555" lat="14.108650">
                <ele>70.794189</ele>
                <time>2006-07-30T03:08:47Z</time>
            </trkpt>
            <trkpt lon="99.150671" lat="14.108584">
                <ele>70.313477</ele>
                <time>2006-07-30T03:08:50Z</time>
            </trkpt>
            <trkpt lon="99.150959" lat="14.108790">
                <ele>68.390869</ele>
                <time>2006-07-30T03:09:00Z</time>
            </trkpt>
            <trkpt lon="99.151537" lat="14.109357">
                <ele>67.910278</ele>
                <time>2006-07-30T03:09:19Z</time>
            </trkpt>
            <trkpt lon="99.152168" lat="14.110047">
                <ele>65.026367</ele>
                <time>2006-07-30T03:09:41Z</time>
            </trkpt>
            <trkpt lon="99.152894" lat="14.110827">
                <ele>64.545654</ele>
                <time>2006-07-30T03:10:04Z</time>
            </trkpt>
            <trkpt lon="99.153484" lat="14.111409">
                <ele>63.584351</ele>
                <time>2006-07-30T03:10:24Z</time>
            </trkpt>
            <trkpt lon="99.153642" lat="14.111335">
                <ele>64.065063</ele>
                <time>2006-07-30T03:10:30Z</time>
            </trkpt>
            <trkpt lon="99.154059" lat="14.110752">
                <ele>66.468262</ele>
                <time>2006-07-30T03:10:48Z</time>
            </trkpt>
            <trkpt lon="99.154493" lat="14.110055">
                <ele>66.468262</ele>
                <time>2006-07-30T03:11:06Z</time>
            </trkpt>
            <trkpt lon="99.155188" lat="14.109107">
                <ele>66.948975</ele>
                <time>2006-07-30T03:11:31Z</time>
            </trkpt>
            <trkpt lon="99.155885" lat="14.108488">
                <ele>66.948975</ele>
                <time>2006-07-30T03:11:51Z</time>
            </trkpt>
            <trkpt lon="99.156626" lat="14.107890">
                <ele>68.390869</ele>
                <time>2006-07-30T03:12:12Z</time>
            </trkpt>
            <trkpt lon="99.157436" lat="14.107449">
                <ele>67.910278</ele>
                <time>2006-07-30T03:12:31Z</time>
            </trkpt>
            <trkpt lon="99.158431" lat="14.107114">
                <ele>67.429688</ele>
                <time>2006-07-30T03:12:52Z</time>
            </trkpt>
            <trkpt lon="99.159429" lat="14.107011">
                <ele>66.468262</ele>
                <time>2006-07-30T03:13:12Z</time>
            </trkpt>
            <trkpt lon="99.160704" lat="14.107057">
                <ele>65.026367</ele>
                <time>2006-07-30T03:13:37Z</time>
            </trkpt>
            <trkpt lon="99.161839" lat="14.107090">
                <ele>63.584351</ele>
                <time>2006-07-30T03:13:57Z</time>
            </trkpt>
            <trkpt lon="99.163133" lat="14.107023">
                <ele>61.661743</ele>
                <time>2006-07-30T03:14:18Z</time>
            </trkpt>
            <trkpt lon="99.164000" lat="14.106800">
                <ele>62.142334</ele>
                <time>2006-07-30T03:14:34Z</time>
            </trkpt>
            <trkpt lon="99.165098" lat="14.106360">
                <ele>60.700317</ele>
                <time>2006-07-30T03:14:56Z</time>
            </trkpt>
            <trkpt lon="99.165790" lat="14.105874">
                <ele>59.258423</ele>
                <time>2006-07-30T03:15:15Z</time>
            </trkpt>
            <trkpt lon="99.166209" lat="14.105490">
                <ele>59.258423</ele>
                <time>2006-07-30T03:15:32Z</time>
            </trkpt>
            <trkpt lon="99.166289" lat="14.105334">
                <ele>55.893799</ele>
                <time>2006-07-30T03:15:48Z</time>
            </trkpt>
            <trkpt lon="99.166274" lat="14.105378">
                <ele>55.413086</ele>
                <time>2006-07-30T03:15:57Z</time>
            </trkpt>
            <trkpt lon="99.166201" lat="14.105500">
                <ele>55.893799</ele>
                <time>2006-07-30T03:16:10Z</time>
            </trkpt>
            <trkpt lon="99.166002" lat="14.105630">
                <ele>59.739136</ele>
                <time>2006-07-30T03:16:24Z</time>
            </trkpt>
            <trkpt lon="99.165698" lat="14.105952">
                <ele>62.142334</ele>
                <time>2006-07-30T03:16:37Z</time>
            </trkpt>
            <trkpt lon="99.165188" lat="14.106314">
                <ele>62.142334</ele>
                <time>2006-07-30T03:16:54Z</time>
            </trkpt>
            <trkpt lon="99.164576" lat="14.106565">
                <ele>61.181030</ele>
                <time>2006-07-30T03:17:13Z</time>
            </trkpt>
            <trkpt lon="99.163883" lat="14.106809">
                <ele>59.739136</ele>
                <time>2006-07-30T03:17:33Z</time>
            </trkpt>
            <trkpt lon="99.162740" lat="14.107004">
                <ele>58.777710</ele>
                <time>2006-07-30T03:18:02Z</time>
            </trkpt>
            <trkpt lon="99.162167" lat="14.107037">
                <ele>61.661743</ele>
                <time>2006-07-30T03:18:22Z</time>
            </trkpt>
            <trkpt lon="99.162081" lat="14.107052">
                <ele>62.622925</ele>
                <time>2006-07-30T03:18:31Z</time>
            </trkpt>
            <trkpt lon="99.161744" lat="14.107068">
                <ele>64.065063</ele>
                <time>2006-07-30T03:18:48Z</time>
            </trkpt>
            <trkpt lon="99.161231" lat="14.107056">
                <ele>66.468262</ele>
                <time>2006-07-30T03:19:08Z</time>
            </trkpt>
            <trkpt lon="99.160628" lat="14.107020">
                <ele>67.429688</ele>
                <time>2006-07-30T03:19:26Z</time>
            </trkpt>
            <trkpt lon="99.159776" lat="14.106979">
                <ele>67.910278</ele>
                <time>2006-07-30T03:19:48Z</time>
            </trkpt>
            <trkpt lon="99.158932" lat="14.106999">
                <ele>67.910278</ele>
                <time>2006-07-30T03:20:08Z</time>
            </trkpt>
            <trkpt lon="99.158354" lat="14.107131">
                <ele>65.507080</ele>
                <time>2006-07-30T03:20:25Z</time>
            </trkpt>
            <trkpt lon="99.157855" lat="14.107281">
                <ele>65.987671</ele>
                <time>2006-07-30T03:20:41Z</time>
            </trkpt>
            <trkpt lon="99.157408" lat="14.107453">
                <ele>65.987671</ele>
                <time>2006-07-30T03:20:57Z</time>
            </trkpt>
            <trkpt lon="99.156858" lat="14.107722">
                <ele>62.622925</ele>
                <time>2006-07-30T03:21:17Z</time>
            </trkpt>
            <trkpt lon="99.156293" lat="14.108128">
                <ele>63.103638</ele>
                <time>2006-07-30T03:21:35Z</time>
            </trkpt>
            <trkpt lon="99.155642" lat="14.108672">
                <ele>64.545654</ele>
                <time>2006-07-30T03:21:53Z</time>
            </trkpt>
            <trkpt lon="99.154842" lat="14.109439">
                <ele>64.065063</ele>
                <time>2006-07-30T03:22:16Z</time>
            </trkpt>
            <trkpt lon="99.154326" lat="14.110347">
                <ele>65.026367</ele>
                <time>2006-07-30T03:22:36Z</time>
            </trkpt>
            <trkpt lon="99.154474" lat="14.110490">
                <ele>65.026367</ele>
                <time>2006-07-30T03:22:42Z</time>
            </trkpt>
            <trkpt lon="99.154938" lat="14.110553">
                <ele>65.507080</ele>
                <time>2006-07-30T03:22:55Z</time>
            </trkpt>
            <trkpt lon="99.154902" lat="14.110699">
                <ele>65.507080</ele>
                <time>2006-07-30T03:22:59Z</time>
            </trkpt>
            <trkpt lon="99.154333" lat="14.111655">
                <ele>63.584351</ele>
                <time>2006-07-30T03:23:22Z</time>
            </trkpt>
            <trkpt lon="99.153574" lat="14.112684">
                <ele>61.661743</ele>
                <time>2006-07-30T03:23:46Z</time>
            </trkpt>
            <trkpt lon="99.152704" lat="14.113352">
                <ele>62.622925</ele>
                <time>2006-07-30T03:24:05Z</time>
            </trkpt>
            <trkpt lon="99.151840" lat="14.113711">
                <ele>62.622925</ele>
                <time>2006-07-30T03:24:24Z</time>
            </trkpt>
            <trkpt lon="99.151325" lat="14.113839">
                <ele>65.987671</ele>
                <time>2006-07-30T03:24:41Z</time>
            </trkpt>
            <trkpt lon="99.150829" lat="14.113940">
                <ele>65.987671</ele>
                <time>2006-07-30T03:25:01Z</time>
            </trkpt>
            <trkpt lon="99.150093" lat="14.114085">
                <ele>65.507080</ele>
                <time>2006-07-30T03:25:17Z</time>
            </trkpt>
            <trkpt lon="99.149358" lat="14.114288">
                <ele>64.545654</ele>
                <time>2006-07-30T03:25:35Z</time>
            </trkpt>
            <trkpt lon="99.148657" lat="14.114790">
                <ele>65.026367</ele>
                <time>2006-07-30T03:25:52Z</time>
            </trkpt>
            <trkpt lon="99.148113" lat="14.115405">
                <ele>64.545654</ele>
                <time>2006-07-30T03:26:11Z</time>
            </trkpt>
            <trkpt lon="99.148094" lat="14.115420">
                <ele>64.065063</ele>
                <time>2006-07-30T03:26:12Z</time>
            </trkpt>
            <trkpt lon="99.147986" lat="14.115388">
                <ele>63.103638</ele>
                <time>2006-07-30T03:26:17Z</time>
            </trkpt>
            <trkpt lon="99.147932" lat="14.115327">
                <ele>62.622925</ele>
                <time>2006-07-30T03:26:25Z</time>
            </trkpt>
            <trkpt lon="99.147854" lat="14.115228">
                <ele>62.622925</ele>
                <time>2006-07-30T03:26:42Z</time>
            </trkpt>
            <trkpt lon="99.147831" lat="14.115204">
                <ele>62.622925</ele>
                <time>2006-07-30T03:26:45Z</time>
            </trkpt>
            <trkpt lon="99.147616" lat="14.115233">
                <ele>65.026367</ele>
                <time>2006-07-30T03:27:00Z</time>
            </trkpt>
            <trkpt lon="99.147274" lat="14.115460">
                <ele>62.622925</ele>
                <time>2006-07-30T03:27:10Z</time>
            </trkpt>
            <trkpt lon="99.147098" lat="14.115399">
                <ele>62.622925</ele>
                <time>2006-07-30T03:27:15Z</time>
            </trkpt>
            <trkpt lon="99.146739" lat="14.114555">
                <ele>60.700317</ele>
                <time>2006-07-30T03:27:32Z</time>
            </trkpt>
            <trkpt lon="99.146446" lat="14.113238">
                <ele>61.181030</ele>
                <time>2006-07-30T03:27:52Z</time>
            </trkpt>
            <trkpt lon="99.146144" lat="14.111665">
                <ele>60.700317</ele>
                <time>2006-07-30T03:28:18Z</time>
            </trkpt>
            <trkpt lon="99.145922" lat="14.110446">
                <ele>60.219727</ele>
                <time>2006-07-30T03:28:40Z</time>
            </trkpt>
            <trkpt lon="99.145760" lat="14.109563">
                <ele>60.700317</ele>
                <time>2006-07-30T03:29:00Z</time>
            </trkpt>
            <trkpt lon="99.145613" lat="14.109000">
                <ele>61.181030</ele>
                <time>2006-07-30T03:29:13Z</time>
            </trkpt>
            <trkpt lon="99.145398" lat="14.108583">
                <ele>61.661743</ele>
                <time>2006-07-30T03:29:23Z</time>
            </trkpt>
            <trkpt lon="99.145194" lat="14.108521">
                <ele>62.142334</ele>
                <time>2006-07-30T03:29:32Z</time>
            </trkpt>
            <trkpt lon="99.145176" lat="14.108518">
                <ele>62.142334</ele>
                <time>2006-07-30T03:29:33Z</time>
            </trkpt>
            <trkpt lon="99.144863" lat="14.108459">
                <ele>62.142334</ele>
                <time>2006-07-30T03:29:48Z</time>
            </trkpt>
            <trkpt lon="99.144556" lat="14.108385">
                <ele>63.584351</ele>
                <time>2006-07-30T03:30:00Z</time>
            </trkpt>
            <trkpt lon="99.144440" lat="14.108229">
                <ele>64.545654</ele>
                <time>2006-07-30T03:30:08Z</time>
            </trkpt>
            <trkpt lon="99.144249" lat="14.108117">
                <ele>64.545654</ele>
                <time>2006-07-30T03:30:21Z</time>
            </trkpt>
            <trkpt lon="99.144224" lat="14.108048">
                <ele>64.065063</ele>
                <time>2006-07-30T03:30:34Z</time>
            </trkpt>
            <trkpt lon="99.144195" lat="14.108035">
                <ele>63.103638</ele>
                <time>2006-07-30T03:30:40Z</time>
            </trkpt>
            <trkpt lon="99.144087" lat="14.108026">
                <ele>64.065063</ele>
                <time>2006-07-30T03:30:55Z</time>
            </trkpt>
            <trkpt lon="99.143918" lat="14.107936">
                <ele>64.545654</ele>
                <time>2006-07-30T03:31:09Z</time>
            </trkpt>
            <trkpt lon="99.143895" lat="14.107658">
                <ele>63.584351</ele>
                <time>2006-07-30T03:31:19Z</time>
            </trkpt>
            <trkpt lon="99.144012" lat="14.107157">
                <ele>62.142334</ele>
                <time>2006-07-30T03:31:34Z</time>
            </trkpt>
            <trkpt lon="99.144118" lat="14.106661">
                <ele>61.661743</ele>
                <time>2006-07-30T03:31:50Z</time>
            </trkpt>
            <trkpt lon="99.144140" lat="14.106247">
                <ele>61.661743</ele>
                <time>2006-07-30T03:32:03Z</time>
            </trkpt>
            <trkpt lon="99.144159" lat="14.105658">
                <ele>61.661743</ele>
                <time>2006-07-30T03:32:20Z</time>
            </trkpt>
            <trkpt lon="99.144219" lat="14.105062">
                <ele>62.142334</ele>
                <time>2006-07-30T03:32:37Z</time>
            </trkpt>
            <trkpt lon="99.144242" lat="14.104925">
                <ele>62.142334</ele>
                <time>2006-07-30T03:32:43Z</time>
            </trkpt>
            <trkpt lon="99.144250" lat="14.104857">
                <ele>62.142334</ele>
                <time>2006-07-30T03:32:47Z</time>
            </trkpt>
            <trkpt lon="99.144133" lat="14.104501">
                <ele>62.622925</ele>
                <time>2006-07-30T03:33:01Z</time>
            </trkpt>
            <trkpt lon="99.143946" lat="14.104311">
                <ele>62.622925</ele>
                <time>2006-07-30T03:33:08Z</time>
            </trkpt>
            <trkpt lon="99.143785" lat="14.104240">
                <ele>62.622925</ele>
                <time>2006-07-30T03:33:12Z</time>
            </trkpt>
            <trkpt lon="99.142705" lat="14.104014">
                <ele>62.142334</ele>
                <time>2006-07-30T03:33:34Z</time>
            </trkpt>
            <trkpt lon="99.142556" lat="14.103939">
                <ele>62.142334</ele>
                <time>2006-07-30T03:33:37Z</time>
            </trkpt>
            <trkpt lon="99.142370" lat="14.103672">
                <ele>61.661743</ele>
                <time>2006-07-30T03:33:43Z</time>
            </trkpt>
            <trkpt lon="99.142190" lat="14.102875">
                <ele>60.700317</ele>
                <time>2006-07-30T03:33:57Z</time>
            </trkpt>
            <trkpt lon="99.141784" lat="14.102407">
                <ele>61.661743</ele>
                <time>2006-07-30T03:34:08Z</time>
            </trkpt>
            <trkpt lon="99.141660" lat="14.102496">
                <ele>60.219727</ele>
                <time>2006-07-30T03:34:14Z</time>
            </trkpt>
            <trkpt lon="99.141379" lat="14.102591">
                <ele>59.258423</ele>
                <time>2006-07-30T03:34:22Z</time>
            </trkpt>
            <trkpt lon="99.141301" lat="14.102828">
                <ele>60.219727</ele>
                <time>2006-07-30T03:34:30Z</time>
            </trkpt>
            <trkpt lon="99.141433" lat="14.103292">
                <ele>61.181030</ele>
                <time>2006-07-30T03:34:50Z</time>
            </trkpt>
            <trkpt lon="99.141439" lat="14.103271">
                <ele>62.622925</ele>
                <time>2006-07-30T03:35:04Z</time>
            </trkpt>
            <trkpt lon="99.141430" lat="14.103305">
                <ele>66.468262</ele>
                <time>2006-07-30T03:35:41Z</time>
            </trkpt>
            <trkpt lon="99.141300" lat="14.103310">
                <ele>73.197632</ele>
                <time>2006-07-30T03:35:58Z</time>
            </trkpt>
            <trkpt lon="99.141210" lat="14.103289">
                <ele>76.562134</ele>
                <time>2006-07-30T03:36:17Z</time>
            </trkpt>
            <trkpt lon="99.141151" lat="14.103267">
                <ele>78.004028</ele>
                <time>2006-07-30T03:36:31Z</time>
            </trkpt>
            <trkpt lon="99.141107" lat="14.103241">
                <ele>78.484741</ele>
                <time>2006-07-30T03:36:45Z</time>
            </trkpt>
            <trkpt lon="99.141067" lat="14.103192">
                <ele>78.484741</ele>
                <time>2006-07-30T03:37:02Z</time>
            </trkpt>
            <trkpt lon="99.141035" lat="14.103149">
                <ele>85.694580</ele>
                <time>2006-07-30T03:37:15Z</time>
            </trkpt>
            <trkpt lon="99.141016" lat="14.103113">
                <ele>90.020630</ele>
                <time>2006-07-30T03:37:31Z</time>
            </trkpt>
            <trkpt lon="99.140947" lat="14.103078">
                <ele>86.656006</ele>
                <time>2006-07-30T03:37:48Z</time>
            </trkpt>
            <trkpt lon="99.140877" lat="14.103089">
                <ele>89.059326</ele>
                <time>2006-07-30T03:38:01Z</time>
            </trkpt>
            <trkpt lon="99.140852" lat="14.103126">
                <ele>89.059326</ele>
                <time>2006-07-30T03:38:15Z</time>
            </trkpt>
            <trkpt lon="99.140886" lat="14.103157">
                <ele>90.501343</ele>
                <time>2006-07-30T03:38:27Z</time>
            </trkpt>
            <trkpt lon="99.140923" lat="14.103166">
                <ele>90.020630</ele>
                <time>2006-07-30T03:38:33Z</time>
            </trkpt>
            <trkpt lon="99.140942" lat="14.103137">
                <ele>89.539917</ele>
                <time>2006-07-30T03:38:47Z</time>
            </trkpt>
            <trkpt lon="99.140953" lat="14.103165">
                <ele>90.020630</ele>
                <time>2006-07-30T03:39:09Z</time>
            </trkpt>
            <trkpt lon="99.140965" lat="14.103200">
                <ele>90.501343</ele>
                <time>2006-07-30T03:39:20Z</time>
            </trkpt>
            <trkpt lon="99.140935" lat="14.103209">
                <ele>89.539917</ele>
                <time>2006-07-30T03:39:35Z</time>
            </trkpt>
            <trkpt lon="99.140899" lat="14.103194">
                <ele>87.617188</ele>
                <time>2006-07-30T03:39:50Z</time>
            </trkpt>
            <trkpt lon="99.140907" lat="14.103194">
                <ele>88.578735</ele>
                <time>2006-07-30T03:40:16Z</time>
            </trkpt>
            <trkpt lon="99.140910" lat="14.103188">
                <ele>90.981934</ele>
                <time>2006-07-30T03:40:46Z</time>
            </trkpt>
            <trkpt lon="99.140894" lat="14.103152">
                <ele>86.656006</ele>
                <time>2006-07-30T03:41:43Z</time>
            </trkpt>
            <trkpt lon="99.140906" lat="14.103150">
                <ele>85.694580</ele>
                <time>2006-07-30T03:42:14Z</time>
            </trkpt>
            <trkpt lon="99.140886" lat="14.103109">
                <ele>84.252686</ele>
                <time>2006-07-30T03:42:29Z</time>
            </trkpt>
            <trkpt lon="99.140949" lat="14.103070">
                <ele>84.252686</ele>
                <time>2006-07-30T03:42:42Z</time>
            </trkpt>
            <trkpt lon="99.141022" lat="14.103083">
                <ele>81.368774</ele>
                <time>2006-07-30T03:42:57Z</time>
            </trkpt>
            <trkpt lon="99.141079" lat="14.103158">
                <ele>77.042847</ele>
                <time>2006-07-30T03:43:23Z</time>
            </trkpt>
            <trkpt lon="99.141109" lat="14.103204">
                <ele>78.004028</ele>
                <time>2006-07-30T03:43:35Z</time>
            </trkpt>
            <trkpt lon="99.141177" lat="14.103275">
                <ele>75.120239</ele>
                <time>2006-07-30T03:43:53Z</time>
            </trkpt>
            <trkpt lon="99.141268" lat="14.103307">
                <ele>70.794189</ele>
                <time>2006-07-30T03:44:19Z</time>
            </trkpt>
            <trkpt lon="99.141310" lat="14.103319">
                <ele>66.468262</ele>
                <time>2006-07-30T03:44:34Z</time>
            </trkpt>
            <trkpt lon="99.141364" lat="14.103343">
                <ele>63.584351</ele>
                <time>2006-07-30T03:44:48Z</time>
            </trkpt>
            <trkpt lon="99.141396" lat="14.103359">
                <ele>62.142334</ele>
                <time>2006-07-30T03:45:03Z</time>
            </trkpt>
            <trkpt lon="99.141415" lat="14.103339">
                <ele>61.181030</ele>
                <time>2006-07-30T03:45:10Z</time>
            </trkpt>
            <trkpt lon="99.141441" lat="14.103282">
                <ele>60.219727</ele>
                <time>2006-07-30T03:45:23Z</time>
            </trkpt>
            <trkpt lon="99.141430" lat="14.103305">
                <ele>61.181030</ele>
                <time>2006-07-30T03:45:39Z</time>
            </trkpt>
            <trkpt lon="99.141260" lat="14.103604">
                <ele>62.142334</ele>
                <time>2006-07-30T03:45:56Z</time>
            </trkpt>
            <trkpt lon="99.141193" lat="14.103835">
                <ele>63.584351</ele>
                <time>2006-07-30T03:46:04Z</time>
            </trkpt>
            <trkpt lon="99.140474" lat="14.103880">
                <ele>60.219727</ele>
                <time>2006-07-30T03:46:23Z</time>
            </trkpt>
            <trkpt lon="99.139442" lat="14.103860">
                <ele>57.816528</ele>
                <time>2006-07-30T03:46:46Z</time>
            </trkpt>
            <trkpt lon="99.138948" lat="14.103775">
                <ele>57.816528</ele>
                <time>2006-07-30T03:46:57Z</time>
            </trkpt>
            <trkpt lon="99.138905" lat="14.103731">
                <ele>59.739136</ele>
                <time>2006-07-30T03:47:06Z</time>
            </trkpt>
            <trkpt lon="99.138906" lat="14.103720">
                <ele>59.258423</ele>
                <time>2006-07-30T03:47:10Z</time>
            </trkpt>
            <trkpt lon="99.138916" lat="14.103689">
                <ele>59.258423</ele>
                <time>2006-07-30T03:47:18Z</time>
            </trkpt>
            <trkpt lon="99.139127" lat="14.103303">
                <ele>58.297119</ele>
                <time>2006-07-30T03:47:32Z</time>
            </trkpt>
            <trkpt lon="99.139279" lat="14.103118">
                <ele>57.816528</ele>
                <time>2006-07-30T03:47:37Z</time>
            </trkpt>
            <trkpt lon="99.139355" lat="14.102953">
                <ele>57.335815</ele>
                <time>2006-07-30T03:47:41Z</time>
            </trkpt>
            <trkpt lon="99.139455" lat="14.102424">
                <ele>55.893799</ele>
                <time>2006-07-30T03:47:54Z</time>
            </trkpt>
            <trkpt lon="99.139443" lat="14.102400">
                <ele>55.893799</ele>
                <time>2006-07-30T03:47:56Z</time>
            </trkpt>
            <trkpt lon="99.139317" lat="14.102366">
                <ele>55.893799</ele>
                <time>2006-07-30T03:48:02Z</time>
            </trkpt>
            <trkpt lon="99.138795" lat="14.102224">
                <ele>57.335815</ele>
                <time>2006-07-30T03:48:20Z</time>
            </trkpt>
            <trkpt lon="99.138515" lat="14.102173">
                <ele>56.855103</ele>
                <time>2006-07-30T03:48:33Z</time>
            </trkpt>
            <trkpt lon="99.137959" lat="14.102061">
                <ele>58.297119</ele>
                <time>2006-07-30T03:48:53Z</time>
            </trkpt>
            <trkpt lon="99.137847" lat="14.102001">
                <ele>58.777710</ele>
                <time>2006-07-30T03:48:58Z</time>
            </trkpt>
            <trkpt lon="99.137845" lat="14.101966">
                <ele>57.816528</ele>
                <time>2006-07-30T03:49:07Z</time>
            </trkpt>
            <trkpt lon="99.137853" lat="14.101979">
                <ele>57.816528</ele>
                <time>2006-07-30T03:49:14Z</time>
            </trkpt>
            <trkpt lon="99.137772" lat="14.102017">
                <ele>57.816528</ele>
                <time>2006-07-30T03:49:20Z</time>
            </trkpt>
            <trkpt lon="99.137242" lat="14.101926">
                <ele>57.816528</ele>
                <time>2006-07-30T03:49:38Z</time>
            </trkpt>
            <trkpt lon="99.136808" lat="14.101844">
                <ele>58.777710</ele>
                <time>2006-07-30T03:49:54Z</time>
            </trkpt>
            <trkpt lon="99.136383" lat="14.101775">
                <ele>57.816528</ele>
                <time>2006-07-30T03:50:08Z</time>
            </trkpt>
            <trkpt lon="99.135882" lat="14.101801">
                <ele>54.451782</ele>
                <time>2006-07-30T03:50:24Z</time>
            </trkpt>
            <trkpt lon="99.135385" lat="14.101869">
                <ele>52.529175</ele>
                <time>2006-07-30T03:50:40Z</time>
            </trkpt>
            <trkpt lon="99.135133" lat="14.101896">
                <ele>52.529175</ele>
                <time>2006-07-30T03:50:48Z</time>
            </trkpt>
            <trkpt lon="99.135082" lat="14.101800">
                <ele>56.855103</ele>
                <time>2006-07-30T03:51:00Z</time>
            </trkpt>
            <trkpt lon="99.135017" lat="14.101779">
                <ele>56.855103</ele>
                <time>2006-07-30T03:51:13Z</time>
            </trkpt>
            <trkpt lon="99.134866" lat="14.101618">
                <ele>57.335815</ele>
                <time>2006-07-30T03:51:26Z</time>
            </trkpt>
            <trkpt lon="99.134459" lat="14.101199">
                <ele>58.777710</ele>
                <time>2006-07-30T03:51:47Z</time>
            </trkpt>
            <trkpt lon="99.134107" lat="14.100824">
                <ele>58.777710</ele>
                <time>2006-07-30T03:52:07Z</time>
            </trkpt>
            <trkpt lon="99.133878" lat="14.100596">
                <ele>58.777710</ele>
                <time>2006-07-30T03:52:21Z</time>
            </trkpt>
            <trkpt lon="99.133603" lat="14.100336">
                <ele>58.777710</ele>
                <time>2006-07-30T03:52:36Z</time>
            </trkpt>
            <trkpt lon="99.133068" lat="14.100072">
                <ele>60.700317</ele>
                <time>2006-07-30T03:52:56Z</time>
            </trkpt>
            <trkpt lon="99.132726" lat="14.099937">
                <ele>60.700317</ele>
                <time>2006-07-30T03:53:10Z</time>
            </trkpt>
            <trkpt lon="99.132267" lat="14.099830">
                <ele>61.181030</ele>
                <time>2006-07-30T03:53:28Z</time>
            </trkpt>
            <trkpt lon="99.131709" lat="14.099748">
                <ele>59.739136</ele>
                <time>2006-07-30T03:53:46Z</time>
            </trkpt>
            <trkpt lon="99.131338" lat="14.099654">
                <ele>60.219727</ele>
                <time>2006-07-30T03:53:59Z</time>
            </trkpt>
            <trkpt lon="99.131239" lat="14.099678">
                <ele>59.739136</ele>
                <time>2006-07-30T03:54:03Z</time>
            </trkpt>
            <trkpt lon="99.130665" lat="14.099759">
                <ele>58.297119</ele>
                <time>2006-07-30T03:54:22Z</time>
            </trkpt>
            <trkpt lon="99.130179" lat="14.099924">
                <ele>57.816528</ele>
                <time>2006-07-30T03:54:40Z</time>
            </trkpt>
            <trkpt lon="99.129723" lat="14.100024">
                <ele>56.855103</ele>
                <time>2006-07-30T03:54:57Z</time>
            </trkpt>
            <trkpt lon="99.129332" lat="14.100134">
                <ele>55.893799</ele>
                <time>2006-07-30T03:55:13Z</time>
            </trkpt>
            <trkpt lon="99.129040" lat="14.100238">
                <ele>57.816528</ele>
                <time>2006-07-30T03:55:26Z</time>
            </trkpt>
            <trkpt lon="99.128910" lat="14.100510">
                <ele>58.297119</ele>
                <time>2006-07-30T03:55:38Z</time>
            </trkpt>
            <trkpt lon="99.128853" lat="14.100555">
                <ele>58.777710</ele>
                <time>2006-07-30T03:55:41Z</time>
            </trkpt>
            <trkpt lon="99.128761" lat="14.100620">
                <ele>59.258423</ele>
                <time>2006-07-30T03:55:54Z</time>
            </trkpt>
            <trkpt lon="99.128715" lat="14.100634">
                <ele>59.258423</ele>
                <time>2006-07-30T03:56:10Z</time>
            </trkpt>
            <trkpt lon="99.128633" lat="14.100666">
                <ele>59.258423</ele>
                <time>2006-07-30T03:56:24Z</time>
            </trkpt>
            <trkpt lon="99.128528" lat="14.100707">
                <ele>61.181030</ele>
                <time>2006-07-30T03:56:37Z</time>
            </trkpt>
            <trkpt lon="99.128445" lat="14.100688">
                <ele>61.181030</ele>
                <time>2006-07-30T03:56:50Z</time>
            </trkpt>
            <trkpt lon="99.128333" lat="14.100646">
                <ele>62.622925</ele>
                <time>2006-07-30T03:57:05Z</time>
            </trkpt>
            <trkpt lon="99.128321" lat="14.100640">
                <ele>63.584351</ele>
                <time>2006-07-30T03:57:09Z</time>
            </trkpt>
            <trkpt lon="99.128136" lat="14.100407">
                <ele>64.545654</ele>
                <time>2006-07-30T03:57:27Z</time>
            </trkpt>
            <trkpt lon="99.128139" lat="14.100397">
                <ele>65.507080</ele>
                <time>2006-07-30T03:57:57Z</time>
            </trkpt>
            <trkpt lon="99.128153" lat="14.100393">
                <ele>65.026367</ele>
                <time>2006-07-30T03:59:05Z</time>
            </trkpt>
            <trkpt lon="99.128130" lat="14.100377">
                <ele>66.468262</ele>
                <time>2006-07-30T03:59:36Z</time>
            </trkpt>
            <trkpt lon="99.127856" lat="14.100228">
                <ele>65.987671</ele>
                <time>2006-07-30T03:59:50Z</time>
            </trkpt>
            <trkpt lon="99.127273" lat="14.099882">
                <ele>66.948975</ele>
                <time>2006-07-30T04:00:11Z</time>
            </trkpt>
            <trkpt lon="99.126659" lat="14.099526">
                <ele>65.987671</ele>
                <time>2006-07-30T04:00:32Z</time>
            </trkpt>
            <trkpt lon="99.126140" lat="14.099234">
                <ele>64.545654</ele>
                <time>2006-07-30T04:00:52Z</time>
            </trkpt>
            <trkpt lon="99.125933" lat="14.099000">
                <ele>63.584351</ele>
                <time>2006-07-30T04:01:02Z</time>
            </trkpt>
            <trkpt lon="99.125552" lat="14.098680">
                <ele>63.103638</ele>
                <time>2006-07-30T04:01:19Z</time>
            </trkpt>
            <trkpt lon="99.125403" lat="14.098618">
                <ele>63.584351</ele>
                <time>2006-07-30T04:01:28Z</time>
            </trkpt>
            <trkpt lon="99.125075" lat="14.098894">
                <ele>62.142334</ele>
                <time>2006-07-30T04:01:40Z</time>
            </trkpt>
            <trkpt lon="99.124624" lat="14.099418">
                <ele>62.142334</ele>
                <time>2006-07-30T04:01:58Z</time>
            </trkpt>
            <trkpt lon="99.124067" lat="14.099956">
                <ele>61.661743</ele>
                <time>2006-07-30T04:02:16Z</time>
            </trkpt>
            <trkpt lon="99.123467" lat="14.100445">
                <ele>63.103638</ele>
                <time>2006-07-30T04:02:36Z</time>
            </trkpt>
            <trkpt lon="99.122933" lat="14.100841">
                <ele>60.219727</ele>
                <time>2006-07-30T04:02:49Z</time>
            </trkpt>
            <trkpt lon="99.122345" lat="14.101402">
                <ele>59.258423</ele>
                <time>2006-07-30T04:03:06Z</time>
            </trkpt>
            <trkpt lon="99.121910" lat="14.101964">
                <ele>59.258423</ele>
                <time>2006-07-30T04:03:19Z</time>
            </trkpt>
            <trkpt lon="99.121768" lat="14.102152">
                <ele>58.777710</ele>
                <time>2006-07-30T04:03:24Z</time>
            </trkpt>
            <trkpt lon="99.121171" lat="14.102522">
                <ele>58.297119</ele>
                <time>2006-07-30T04:03:38Z</time>
            </trkpt>
            <trkpt lon="99.120604" lat="14.102872">
                <ele>60.700317</ele>
                <time>2006-07-30T04:03:55Z</time>
            </trkpt>
            <trkpt lon="99.120205" lat="14.103194">
                <ele>62.142334</ele>
                <time>2006-07-30T04:04:11Z</time>
            </trkpt>
            <trkpt lon="99.119854" lat="14.103515">
                <ele>62.622925</ele>
                <time>2006-07-30T04:04:25Z</time>
            </trkpt>
            <trkpt lon="99.119530" lat="14.103772">
                <ele>64.065063</ele>
                <time>2006-07-30T04:04:38Z</time>
            </trkpt>
            <trkpt lon="99.118991" lat="14.104219">
                <ele>62.142334</ele>
                <time>2006-07-30T04:04:57Z</time>
            </trkpt>
            <trkpt lon="99.118338" lat="14.104783">
                <ele>59.258423</ele>
                <time>2006-07-30T04:05:12Z</time>
            </trkpt>
            <trkpt lon="99.117901" lat="14.105070">
                <ele>59.739136</ele>
                <time>2006-07-30T04:05:26Z</time>
            </trkpt>
            <trkpt lon="99.117480" lat="14.104798">
                <ele>63.584351</ele>
                <time>2006-07-30T04:05:44Z</time>
            </trkpt>
            <trkpt lon="99.117068" lat="14.104578">
                <ele>65.987671</ele>
                <time>2006-07-30T04:06:03Z</time>
            </trkpt>
            <trkpt lon="99.116628" lat="14.104324">
                <ele>66.468262</ele>
                <time>2006-07-30T04:06:22Z</time>
            </trkpt>
            <trkpt lon="99.116267" lat="14.104129">
                <ele>69.352295</ele>
                <time>2006-07-30T04:06:38Z</time>
            </trkpt>
            <trkpt lon="99.115913" lat="14.103942">
                <ele>69.832886</ele>
                <time>2006-07-30T04:06:58Z</time>
            </trkpt>
            <trkpt lon="99.115716" lat="14.104114">
                <ele>71.755493</ele>
                <time>2006-07-30T04:07:12Z</time>
            </trkpt>
            <trkpt lon="99.115639" lat="14.104083">
                <ele>72.716919</ele>
                <time>2006-07-30T04:07:16Z</time>
            </trkpt>
            <trkpt lon="99.115584" lat="14.104061">
                <ele>72.716919</ele>
                <time>2006-07-30T04:07:19Z</time>
            </trkpt>
            <trkpt lon="99.115295" lat="14.104160">
                <ele>75.120239</ele>
                <time>2006-07-30T04:07:35Z</time>
            </trkpt>
            <trkpt lon="99.115061" lat="14.104247">
                <ele>76.081421</ele>
                <time>2006-07-30T04:07:49Z</time>
            </trkpt>
            <trkpt lon="99.114935" lat="14.104301">
                <ele>76.081421</ele>
                <time>2006-07-30T04:08:02Z</time>
            </trkpt>
            <trkpt lon="99.114850" lat="14.104329">
                <ele>77.523438</ele>
                <time>2006-07-30T04:08:15Z</time>
            </trkpt>
            <trkpt lon="99.114714" lat="14.104428">
                <ele>80.888184</ele>
                <time>2006-07-30T04:08:34Z</time>
            </trkpt>
            <trkpt lon="99.114652" lat="14.104476">
                <ele>81.849365</ele>
                <time>2006-07-30T04:08:42Z</time>
            </trkpt>
            <trkpt lon="99.114568" lat="14.104752">
                <ele>82.810791</ele>
                <time>2006-07-30T04:08:57Z</time>
            </trkpt>
            <trkpt lon="99.114478" lat="14.104865">
                <ele>82.330078</ele>
                <time>2006-07-30T04:09:02Z</time>
            </trkpt>
            <trkpt lon="99.114381" lat="14.104775">
                <ele>81.368774</ele>
                <time>2006-07-30T04:09:08Z</time>
            </trkpt>
            <trkpt lon="99.113987" lat="14.104393">
                <ele>80.888184</ele>
                <time>2006-07-30T04:09:27Z</time>
            </trkpt>
            <trkpt lon="99.113529" lat="14.104284">
                <ele>82.810791</ele>
                <time>2006-07-30T04:09:42Z</time>
            </trkpt>
            <trkpt lon="99.112701" lat="14.104502">
                <ele>84.252686</ele>
                <time>2006-07-30T04:10:06Z</time>
            </trkpt>
            <trkpt lon="99.112101" lat="14.104811">
                <ele>83.771973</ele>
                <time>2006-07-30T04:10:24Z</time>
            </trkpt>
            <trkpt lon="99.111334" lat="14.105210">
                <ele>83.771973</ele>
                <time>2006-07-30T04:10:45Z</time>
            </trkpt>
            <trkpt lon="99.110468" lat="14.105514">
                <ele>86.656006</ele>
                <time>2006-07-30T04:11:09Z</time>
            </trkpt>
            <trkpt lon="99.110034" lat="14.105700">
                <ele>88.578735</ele>
                <time>2006-07-30T04:11:26Z</time>
            </trkpt>
            <trkpt lon="99.109457" lat="14.106073">
                <ele>90.501343</ele>
                <time>2006-07-30T04:11:46Z</time>
            </trkpt>
            <trkpt lon="99.109227" lat="14.106317">
                <ele>90.501343</ele>
                <time>2006-07-30T04:11:56Z</time>
            </trkpt>
            <trkpt lon="99.109469" lat="14.106794">
                <ele>88.578735</ele>
                <time>2006-07-30T04:12:07Z</time>
            </trkpt>
            <trkpt lon="99.109847" lat="14.107322">
                <ele>86.175293</ele>
                <time>2006-07-30T04:12:16Z</time>
            </trkpt>
            <trkpt lon="99.110852" lat="14.108042">
                <ele>79.926636</ele>
                <time>2006-07-30T04:12:32Z</time>
            </trkpt>
            <trkpt lon="99.111426" lat="14.108461">
                <ele>78.484741</ele>
                <time>2006-07-30T04:12:44Z</time>
            </trkpt>
            <trkpt lon="99.111432" lat="14.108472">
                <ele>78.484741</ele>
                <time>2006-07-30T04:12:45Z</time>
            </trkpt>
            <trkpt lon="99.111379" lat="14.108509">
                <ele>77.042847</ele>
                <time>2006-07-30T04:13:00Z</time>
            </trkpt>
            <trkpt lon="99.111339" lat="14.108514">
                <ele>76.081421</ele>
                <time>2006-07-30T04:13:08Z</time>
            </trkpt>
            <trkpt lon="99.110954" lat="14.108647">
                <ele>74.639526</ele>
                <time>2006-07-30T04:13:24Z</time>
            </trkpt>
            <trkpt lon="99.110440" lat="14.108876">
                <ele>74.158813</ele>
                <time>2006-07-30T04:13:39Z</time>
            </trkpt>
            <trkpt lon="99.109897" lat="14.109211">
                <ele>74.158813</ele>
                <time>2006-07-30T04:13:56Z</time>
            </trkpt>
            <trkpt lon="99.109360" lat="14.109777">
                <ele>75.600830</ele>
                <time>2006-07-30T04:14:18Z</time>
            </trkpt>
            <trkpt lon="99.108803" lat="14.110404">
                <ele>78.484741</ele>
                <time>2006-07-30T04:14:41Z</time>
            </trkpt>
            <trkpt lon="99.108268" lat="14.110922">
                <ele>81.849365</ele>
                <time>2006-07-30T04:15:02Z</time>
            </trkpt>
            <trkpt lon="99.107753" lat="14.111338">
                <ele>81.368774</ele>
                <time>2006-07-30T04:15:19Z</time>
            </trkpt>
            <trkpt lon="99.107228" lat="14.111716">
                <ele>83.291382</ele>
                <time>2006-07-30T04:15:36Z</time>
            </trkpt>
            <trkpt lon="99.106681" lat="14.112042">
                <ele>85.694580</ele>
                <time>2006-07-30T04:15:57Z</time>
            </trkpt>
            <trkpt lon="99.106098" lat="14.112346">
                <ele>87.617188</ele>
                <time>2006-07-30T04:16:16Z</time>
            </trkpt>
            <trkpt lon="99.105407" lat="14.112622">
                <ele>87.136597</ele>
                <time>2006-07-30T04:16:37Z</time>
            </trkpt>
            <trkpt lon="99.104788" lat="14.112638">
                <ele>90.020630</ele>
                <time>2006-07-30T04:16:54Z</time>
            </trkpt>
            <trkpt lon="99.104223" lat="14.112566">
                <ele>91.462524</ele>
                <time>2006-07-30T04:17:11Z</time>
            </trkpt>
            <trkpt lon="99.103818" lat="14.112428">
                <ele>93.385132</ele>
                <time>2006-07-30T04:17:31Z</time>
            </trkpt>
            <trkpt lon="99.103404" lat="14.112260">
                <ele>93.385132</ele>
                <time>2006-07-30T04:17:52Z</time>
            </trkpt>
            <trkpt lon="99.103068" lat="14.112146">
                <ele>92.904541</ele>
                <time>2006-07-30T04:18:13Z</time>
            </trkpt>
            <trkpt lon="99.102738" lat="14.112022">
                <ele>95.307739</ele>
                <time>2006-07-30T04:18:34Z</time>
            </trkpt>
            <trkpt lon="99.102395" lat="14.111961">
                <ele>99.153076</ele>
                <time>2006-07-30T04:18:56Z</time>
            </trkpt>
            <trkpt lon="99.102069" lat="14.112013">
                <ele>103.479004</ele>
                <time>2006-07-30T04:19:13Z</time>
            </trkpt>
            <trkpt lon="99.101619" lat="14.112087">
                <ele>105.401733</ele>
                <time>2006-07-30T04:19:34Z</time>
            </trkpt>
            <trkpt lon="99.101204" lat="14.112150">
                <ele>108.285645</ele>
                <time>2006-07-30T04:19:52Z</time>
            </trkpt>
            <trkpt lon="99.100956" lat="14.112174">
                <ele>113.572998</ele>
                <time>2006-07-30T04:20:09Z</time>
            </trkpt>
            <trkpt lon="99.100693" lat="14.112154">
                <ele>115.014893</ele>
                <time>2006-07-30T04:20:30Z</time>
            </trkpt>
            <trkpt lon="99.100431" lat="14.112040">
                <ele>115.976196</ele>
                <time>2006-07-30T04:20:49Z</time>
            </trkpt>
            <trkpt lon="99.100188" lat="14.111891">
                <ele>118.379395</ele>
                <time>2006-07-30T04:21:10Z</time>
            </trkpt>
            <trkpt lon="99.100064" lat="14.111768">
                <ele>122.705444</ele>
                <time>2006-07-30T04:21:26Z</time>
            </trkpt>
            <trkpt lon="99.099992" lat="14.111669">
                <ele>130.876709</ele>
                <time>2006-07-30T04:21:50Z</time>
            </trkpt>
            <trkpt lon="99.099840" lat="14.111460">
                <ele>136.163940</ele>
                <time>2006-07-30T04:22:12Z</time>
            </trkpt>
            <trkpt lon="99.099652" lat="14.111248">
                <ele>139.047852</ele>
                <time>2006-07-30T04:22:34Z</time>
            </trkpt>
            <trkpt lon="99.099494" lat="14.111085">
                <ele>141.931763</ele>
                <time>2006-07-30T04:22:53Z</time>
            </trkpt>
            <trkpt lon="99.099365" lat="14.110942">
                <ele>145.296387</ele>
                <time>2006-07-30T04:23:11Z</time>
            </trkpt>
            <trkpt lon="99.099272" lat="14.110791">
                <ele>147.699707</ele>
                <time>2006-07-30T04:23:31Z</time>
            </trkpt>
            <trkpt lon="99.099167" lat="14.110630">
                <ele>151.064209</ele>
                <time>2006-07-30T04:23:52Z</time>
            </trkpt>
            <trkpt lon="99.099021" lat="14.110404">
                <ele>151.544922</ele>
                <time>2006-07-30T04:24:16Z</time>
            </trkpt>
            <trkpt lon="99.098937" lat="14.110278">
                <ele>153.467651</ele>
                <time>2006-07-30T04:24:31Z</time>
            </trkpt>
            <trkpt lon="99.098845" lat="14.110126">
                <ele>154.909546</ele>
                <time>2006-07-30T04:24:49Z</time>
            </trkpt>
            <trkpt lon="99.098665" lat="14.109920">
                <ele>154.428955</ele>
                <time>2006-07-30T04:25:13Z</time>
            </trkpt>
            <trkpt lon="99.098485" lat="14.109758">
                <ele>158.754761</ele>
                <time>2006-07-30T04:25:34Z</time>
            </trkpt>
            <trkpt lon="99.097919" lat="14.109364">
                <ele>156.832153</ele>
                <time>2006-07-30T04:26:08Z</time>
            </trkpt>
            <trkpt lon="99.097050" lat="14.108827">
                <ele>151.544922</ele>
                <time>2006-07-30T04:26:28Z</time>
            </trkpt>
            <trkpt lon="99.096149" lat="14.108210">
                <ele>148.661011</ele>
                <time>2006-07-30T04:26:48Z</time>
            </trkpt>
            <trkpt lon="99.095535" lat="14.107591">
                <ele>145.296387</ele>
                <time>2006-07-30T04:27:03Z</time>
            </trkpt>
            <trkpt lon="99.094904" lat="14.106929">
                <ele>140.970459</ele>
                <time>2006-07-30T04:27:18Z</time>
            </trkpt>
            <trkpt lon="99.094562" lat="14.106600">
                <ele>139.528442</ele>
                <time>2006-07-30T04:27:25Z</time>
            </trkpt>
            <trkpt lon="99.094377" lat="14.106378">
                <ele>138.086548</ele>
                <time>2006-07-30T04:27:35Z</time>
            </trkpt>
            <trkpt lon="99.094375" lat="14.106393">
                <ele>138.086548</ele>
                <time>2006-07-30T04:27:41Z</time>
            </trkpt>
            <trkpt lon="99.094600" lat="14.106618">
                <ele>136.163940</ele>
                <time>2006-07-30T04:27:55Z</time>
            </trkpt>
            <trkpt lon="99.094892" lat="14.106908">
                <ele>135.683105</ele>
                <time>2006-07-30T04:28:10Z</time>
            </trkpt>
            <trkpt lon="99.095012" lat="14.107019">
                <ele>136.163940</ele>
                <time>2006-07-30T04:28:16Z</time>
            </trkpt>
            <trkpt lon="99.095124" lat="14.106944">
                <ele>136.644653</ele>
                <time>2006-07-30T04:28:24Z</time>
            </trkpt>
            <trkpt lon="99.095279" lat="14.106609">
                <ele>136.163940</ele>
                <time>2006-07-30T04:28:38Z</time>
            </trkpt>
            <trkpt lon="99.095456" lat="14.106265">
                <ele>134.721924</ele>
                <time>2006-07-30T04:28:52Z</time>
            </trkpt>
            <trkpt lon="99.095614" lat="14.105994">
                <ele>136.163940</ele>
                <time>2006-07-30T04:29:07Z</time>
            </trkpt>
            <trkpt lon="99.095611" lat="14.106000">
                <ele>139.047852</ele>
                <time>2006-07-30T04:29:26Z</time>
            </trkpt>
            <trkpt lon="99.095607" lat="14.106012">
                <ele>138.567261</ele>
                <time>2006-07-30T04:29:33Z</time>
            </trkpt>
            <trkpt lon="99.095445" lat="14.106303">
                <ele>138.567261</ele>
                <time>2006-07-30T04:29:48Z</time>
            </trkpt>
            <trkpt lon="99.095288" lat="14.106583">
                <ele>139.047852</ele>
                <time>2006-07-30T04:30:02Z</time>
            </trkpt>
            <trkpt lon="99.095075" lat="14.106987">
                <ele>139.047852</ele>
                <time>2006-07-30T04:30:20Z</time>
            </trkpt>
            <trkpt lon="99.095059" lat="14.107002">
                <ele>138.567261</ele>
                <time>2006-07-30T04:30:21Z</time>
            </trkpt>
            <trkpt lon="99.094928" lat="14.106939">
                <ele>138.567261</ele>
                <time>2006-07-30T04:30:27Z</time>
            </trkpt>
            <trkpt lon="99.094500" lat="14.106519">
                <ele>137.605835</ele>
                <time>2006-07-30T04:30:43Z</time>
            </trkpt>
            <trkpt lon="99.094038" lat="14.106024">
                <ele>138.086548</ele>
                <time>2006-07-30T04:30:59Z</time>
            </trkpt>
            <trkpt lon="99.093398" lat="14.105452">
                <ele>138.086548</ele>
                <time>2006-07-30T04:31:17Z</time>
            </trkpt>
            <trkpt lon="99.092606" lat="14.104740">
                <ele>133.760498</ele>
                <time>2006-07-30T04:31:34Z</time>
            </trkpt>
            <trkpt lon="99.091665" lat="14.103931">
                <ele>130.395996</ele>
                <time>2006-07-30T04:31:53Z</time>
            </trkpt>
            <trkpt lon="99.090889" lat="14.103268">
                <ele>129.434692</ele>
                <time>2006-07-30T04:32:10Z</time>
            </trkpt>
            <trkpt lon="99.089986" lat="14.102415">
                <ele>127.992554</ele>
                <time>2006-07-30T04:32:32Z</time>
            </trkpt>
            <trkpt lon="99.089522" lat="14.101665">
                <ele>127.031372</ele>
                <time>2006-07-30T04:32:49Z</time>
            </trkpt>
            <trkpt lon="99.088883" lat="14.100367">
                <ele>122.224731</ele>
                <time>2006-07-30T04:33:17Z</time>
            </trkpt>
            <trkpt lon="99.088335" lat="14.100035">
                <ele>124.628052</ele>
                <time>2006-07-30T04:33:30Z</time>
            </trkpt>
            <trkpt lon="99.087727" lat="14.099835">
                <ele>124.628052</ele>
                <time>2006-07-30T04:33:47Z</time>
            </trkpt>
            <trkpt lon="99.087561" lat="14.099767">
                <ele>124.628052</ele>
                <time>2006-07-30T04:33:52Z</time>
            </trkpt>
            <trkpt lon="99.087589" lat="14.099585">
                <ele>124.147339</ele>
                <time>2006-07-30T04:33:57Z</time>
            </trkpt>
            <trkpt lon="99.088044" lat="14.098759">
                <ele>122.224731</ele>
                <time>2006-07-30T04:34:16Z</time>
            </trkpt>
            <trkpt lon="99.088759" lat="14.097448">
                <ele>119.340820</ele>
                <time>2006-07-30T04:34:41Z</time>
            </trkpt>
            <trkpt lon="99.089377" lat="14.096318">
                <ele>117.418213</ele>
                <time>2006-07-30T04:35:01Z</time>
            </trkpt>
            <trkpt lon="99.090014" lat="14.095157">
                <ele>118.379395</ele>
                <time>2006-07-30T04:35:21Z</time>
            </trkpt>
            <trkpt lon="99.090686" lat="14.093961">
                <ele>114.053589</ele>
                <time>2006-07-30T04:35:42Z</time>
            </trkpt>
            <trkpt lon="99.091269" lat="14.092804">
                <ele>110.688843</ele>
                <time>2006-07-30T04:36:01Z</time>
            </trkpt>
            <trkpt lon="99.091367" lat="14.091755">
                <ele>106.843628</ele>
                <time>2006-07-30T04:36:17Z</time>
            </trkpt>
            <trkpt lon="99.091390" lat="14.091057">
                <ele>104.440430</ele>
                <time>2006-07-30T04:36:31Z</time>
            </trkpt>
            <trkpt lon="99.091436" lat="14.090189">
                <ele>100.595093</ele>
                <time>2006-07-30T04:36:45Z</time>
            </trkpt>
            <trkpt lon="99.091816" lat="14.089828">
                <ele>99.153076</ele>
                <time>2006-07-30T04:36:53Z</time>
            </trkpt>
            <trkpt lon="99.092275" lat="14.089721">
                <ele>98.672485</ele>
                <time>2006-07-30T04:37:00Z</time>
            </trkpt>
            <trkpt lon="99.093005" lat="14.089129">
                <ele>95.788452</ele>
                <time>2006-07-30T04:37:14Z</time>
            </trkpt>
            <trkpt lon="99.093958" lat="14.088446">
                <ele>93.385132</ele>
                <time>2006-07-30T04:37:30Z</time>
            </trkpt>
            <trkpt lon="99.095172" lat="14.088252">
                <ele>92.423950</ele>
                <time>2006-07-30T04:37:49Z</time>
            </trkpt>
            <trkpt lon="99.096239" lat="14.087711">
                <ele>91.462524</ele>
                <time>2006-07-30T04:38:09Z</time>
            </trkpt>
            <trkpt lon="99.097281" lat="14.086981">
                <ele>89.539917</ele>
                <time>2006-07-30T04:38:30Z</time>
            </trkpt>
            <trkpt lon="99.098113" lat="14.086108">
                <ele>89.539917</ele>
                <time>2006-07-30T04:38:51Z</time>
            </trkpt>
            <trkpt lon="99.098941" lat="14.085102">
                <ele>89.059326</ele>
                <time>2006-07-30T04:39:13Z</time>
            </trkpt>
            <trkpt lon="99.099734" lat="14.084063">
                <ele>86.175293</ele>
                <time>2006-07-30T04:39:33Z</time>
            </trkpt>
            <trkpt lon="99.100400" lat="14.083205">
                <ele>84.252686</ele>
                <time>2006-07-30T04:39:50Z</time>
            </trkpt>
            <trkpt lon="99.101208" lat="14.082329">
                <ele>85.213989</ele>
                <time>2006-07-30T04:40:10Z</time>
            </trkpt>
            <trkpt lon="99.102105" lat="14.081392">
                <ele>83.771973</ele>
                <time>2006-07-30T04:40:31Z</time>
            </trkpt>
            <trkpt lon="99.102410" lat="14.081151">
                <ele>83.291382</ele>
                <time>2006-07-30T04:40:37Z</time>
            </trkpt>
            <trkpt lon="99.102920" lat="14.081062">
                <ele>81.368774</ele>
                <time>2006-07-30T04:40:44Z</time>
            </trkpt>
            <trkpt lon="99.104511" lat="14.081319">
                <ele>75.600830</ele>
                <time>2006-07-30T04:41:04Z</time>
            </trkpt>
            <trkpt lon="99.106100" lat="14.081674">
                <ele>74.158813</ele>
                <time>2006-07-30T04:41:26Z</time>
            </trkpt>
            <trkpt lon="99.106234" lat="14.081708">
                <ele>74.158813</ele>
                <time>2006-07-30T04:41:28Z</time>
            </trkpt>
            <trkpt lon="99.107491" lat="14.082174">
                <ele>74.158813</ele>
                <time>2006-07-30T04:41:49Z</time>
            </trkpt>
            <trkpt lon="99.108780" lat="14.082604">
                <ele>70.794189</ele>
                <time>2006-07-30T04:42:09Z</time>
            </trkpt>
            <trkpt lon="99.110044" lat="14.083019">
                <ele>69.352295</ele>
                <time>2006-07-30T04:42:29Z</time>
            </trkpt>
            <trkpt lon="99.111169" lat="14.083404">
                <ele>69.352295</ele>
                <time>2006-07-30T04:42:49Z</time>
            </trkpt>
            <trkpt lon="99.112340" lat="14.083767">
                <ele>70.313477</ele>
                <time>2006-07-30T04:43:10Z</time>
            </trkpt>
            <trkpt lon="99.113519" lat="14.084069">
                <ele>68.390869</ele>
                <time>2006-07-30T04:43:30Z</time>
            </trkpt>
            <trkpt lon="99.114951" lat="14.084401">
                <ele>65.987671</ele>
                <time>2006-07-30T04:43:53Z</time>
            </trkpt>
            <trkpt lon="99.116410" lat="14.084733">
                <ele>64.545654</ele>
                <time>2006-07-30T04:44:15Z</time>
            </trkpt>
            <trkpt lon="99.117680" lat="14.085018">
                <ele>62.622925</ele>
                <time>2006-07-30T04:44:34Z</time>
            </trkpt>
            <trkpt lon="99.118789" lat="14.085274">
                <ele>63.103638</ele>
                <time>2006-07-30T04:44:52Z</time>
            </trkpt>
            <trkpt lon="99.120120" lat="14.085559">
                <ele>63.103638</ele>
                <time>2006-07-30T04:45:15Z</time>
            </trkpt>
            <trkpt lon="99.121429" lat="14.085731">
                <ele>62.142334</ele>
                <time>2006-07-30T04:45:36Z</time>
            </trkpt>
            <trkpt lon="99.122744" lat="14.085905">
                <ele>61.661743</ele>
                <time>2006-07-30T04:45:58Z</time>
            </trkpt>
            <trkpt lon="99.124150" lat="14.086090">
                <ele>62.622925</ele>
                <time>2006-07-30T04:46:22Z</time>
            </trkpt>
            <trkpt lon="99.125219" lat="14.086239">
                <ele>63.103638</ele>
                <time>2006-07-30T04:46:43Z</time>
            </trkpt>
            <trkpt lon="99.126230" lat="14.086463">
                <ele>63.103638</ele>
                <time>2006-07-30T04:47:04Z</time>
            </trkpt>
            <trkpt lon="99.126967" lat="14.086824">
                <ele>62.622925</ele>
                <time>2006-07-30T04:47:21Z</time>
            </trkpt>
            <trkpt lon="99.127636" lat="14.087393">
                <ele>63.584351</ele>
                <time>2006-07-30T04:47:41Z</time>
            </trkpt>
            <trkpt lon="99.128190" lat="14.087944">
                <ele>67.429688</ele>
                <time>2006-07-30T04:48:03Z</time>
            </trkpt>
            <trkpt lon="99.128720" lat="14.088469">
                <ele>68.390869</ele>
                <time>2006-07-30T04:48:24Z</time>
            </trkpt>
            <trkpt lon="99.129199" lat="14.088961">
                <ele>67.429688</ele>
                <time>2006-07-30T04:48:43Z</time>
            </trkpt>
            <trkpt lon="99.129195" lat="14.088967">
                <ele>67.429688</ele>
                <time>2006-07-30T04:48:59Z</time>
            </trkpt>
            <trkpt lon="99.129213" lat="14.088977">
                <ele>68.871582</ele>
                <time>2006-07-30T04:49:22Z</time>
            </trkpt>
            <trkpt lon="99.129495" lat="14.089236">
                <ele>66.948975</ele>
                <time>2006-07-30T04:49:36Z</time>
            </trkpt>
            <trkpt lon="99.129602" lat="14.089350">
                <ele>66.468262</ele>
                <time>2006-07-30T04:49:40Z</time>
            </trkpt>
            <trkpt lon="99.130194" lat="14.089935">
                <ele>63.584351</ele>
                <time>2006-07-30T04:49:57Z</time>
            </trkpt>
            <trkpt lon="99.130996" lat="14.090811">
                <ele>61.661743</ele>
                <time>2006-07-30T04:50:19Z</time>
            </trkpt>
            <trkpt lon="99.131337" lat="14.091690">
                <ele>60.700317</ele>
                <time>2006-07-30T04:50:38Z</time>
            </trkpt>
            <trkpt lon="99.131933" lat="14.092773">
                <ele>56.855103</ele>
                <time>2006-07-30T04:50:58Z</time>
            </trkpt>
            <trkpt lon="99.132308" lat="14.093382">
                <ele>54.451782</ele>
                <time>2006-07-30T04:51:08Z</time>
            </trkpt>
            <trkpt lon="99.132409" lat="14.093488">
                <ele>53.490479</ele>
                <time>2006-07-30T04:51:10Z</time>
            </trkpt>
            <trkpt lon="99.133383" lat="14.093973">
                <ele>52.048584</ele>
                <time>2006-07-30T04:51:26Z</time>
            </trkpt>
            <trkpt lon="99.134576" lat="14.094738">
                <ele>51.567871</ele>
                <time>2006-07-30T04:51:48Z</time>
            </trkpt>
            <trkpt lon="99.135331" lat="14.095508">
                <ele>50.606567</ele>
                <time>2006-07-30T04:52:06Z</time>
            </trkpt>
            <trkpt lon="99.136007" lat="14.096428">
                <ele>49.164551</ele>
                <time>2006-07-30T04:52:27Z</time>
            </trkpt>
            <trkpt lon="99.136716" lat="14.097381">
                <ele>47.241821</ele>
                <time>2006-07-30T04:52:48Z</time>
            </trkpt>
            <trkpt lon="99.137515" lat="14.098091">
                <ele>45.799927</ele>
                <time>2006-07-30T04:53:06Z</time>
            </trkpt>
            <trkpt lon="99.138424" lat="14.098823">
                <ele>44.838623</ele>
                <time>2006-07-30T04:53:26Z</time>
            </trkpt>
            <trkpt lon="99.139085" lat="14.099842">
                <ele>46.280640</ele>
                <time>2006-07-30T04:53:48Z</time>
            </trkpt>
            <trkpt lon="99.139869" lat="14.100759">
                <ele>45.319214</ele>
                <time>2006-07-30T04:54:10Z</time>
            </trkpt>
            <trkpt lon="99.140714" lat="14.101310">
                <ele>46.761230</ele>
                <time>2006-07-30T04:54:29Z</time>
            </trkpt>
            <trkpt lon="99.141421" lat="14.102015">
                <ele>44.838623</ele>
                <time>2006-07-30T04:54:46Z</time>
            </trkpt>
            <trkpt lon="99.142217" lat="14.102879">
                <ele>44.838623</ele>
                <time>2006-07-30T04:55:07Z</time>
            </trkpt>
            <trkpt lon="99.142395" lat="14.103631">
                <ele>45.319214</ele>
                <time>2006-07-30T04:55:23Z</time>
            </trkpt>
            <trkpt lon="99.142483" lat="14.103838">
                <ele>45.799927</ele>
                <time>2006-07-30T04:55:28Z</time>
            </trkpt>
            <trkpt lon="99.142597" lat="14.103973">
                <ele>45.799927</ele>
                <time>2006-07-30T04:55:32Z</time>
            </trkpt>
            <trkpt lon="99.142867" lat="14.104108">
                <ele>45.799927</ele>
                <time>2006-07-30T04:55:39Z</time>
            </trkpt>
            <trkpt lon="99.143038" lat="14.104133">
                <ele>45.799927</ele>
                <time>2006-07-30T04:55:43Z</time>
            </trkpt>
            <trkpt lon="99.143812" lat="14.104265">
                <ele>47.241821</ele>
                <time>2006-07-30T04:56:00Z</time>
            </trkpt>
            <trkpt lon="99.143902" lat="14.104294">
                <ele>47.722534</ele>
                <time>2006-07-30T04:56:02Z</time>
            </trkpt>
            <trkpt lon="99.144144" lat="14.104466">
                <ele>48.203369</ele>
                <time>2006-07-30T04:56:08Z</time>
            </trkpt>
            <trkpt lon="99.144445" lat="14.105161">
                <ele>48.683960</ele>
                <time>2006-07-30T04:56:23Z</time>
            </trkpt>
            <trkpt lon="99.144601" lat="14.106264">
                <ele>49.645264</ele>
                <time>2006-07-30T04:56:45Z</time>
            </trkpt>
            <trkpt lon="99.144797" lat="14.107308">
                <ele>49.164551</ele>
                <time>2006-07-30T04:57:06Z</time>
            </trkpt>
            <trkpt lon="99.145355" lat="14.108464">
                <ele>47.722534</ele>
                <time>2006-07-30T04:57:31Z</time>
            </trkpt>
            <trkpt lon="99.145730" lat="14.109405">
                <ele>49.164551</ele>
                <time>2006-07-30T04:57:50Z</time>
            </trkpt>
            <trkpt lon="99.145976" lat="14.110714">
                <ele>47.722534</ele>
                <time>2006-07-30T04:58:15Z</time>
            </trkpt>
            <trkpt lon="99.146201" lat="14.111901">
                <ele>48.203369</ele>
                <time>2006-07-30T04:58:35Z</time>
            </trkpt>
            <trkpt lon="99.146362" lat="14.112757">
                <ele>49.645264</ele>
                <time>2006-07-30T04:58:52Z</time>
            </trkpt>
            <trkpt lon="99.146538" lat="14.113755">
                <ele>49.164551</ele>
                <time>2006-07-30T04:59:11Z</time>
            </trkpt>
            <trkpt lon="99.146732" lat="14.114627">
                <ele>48.683960</ele>
                <time>2006-07-30T04:59:29Z</time>
            </trkpt>
            <trkpt lon="99.146985" lat="14.115282">
                <ele>49.164551</ele>
                <time>2006-07-30T04:59:48Z</time>
            </trkpt>
            <trkpt lon="99.147113" lat="14.115518">
                <ele>48.683960</ele>
                <time>2006-07-30T04:59:55Z</time>
            </trkpt>
            <trkpt lon="99.147254" lat="14.115533">
                <ele>48.683960</ele>
                <time>2006-07-30T05:00:00Z</time>
            </trkpt>
            <trkpt lon="99.147809" lat="14.115051">
                <ele>48.203369</ele>
                <time>2006-07-30T05:00:16Z</time>
            </trkpt>
            <trkpt lon="99.148142" lat="14.114588">
                <ele>50.125977</ele>
                <time>2006-07-30T05:00:29Z</time>
            </trkpt>
            <trkpt lon="99.148875" lat="14.113931">
                <ele>49.164551</ele>
                <time>2006-07-30T05:00:51Z</time>
            </trkpt>
            <trkpt lon="99.149773" lat="14.113668">
                <ele>49.645264</ele>
                <time>2006-07-30T05:01:10Z</time>
            </trkpt>
            <trkpt lon="99.150810" lat="14.113395">
                <ele>50.606567</ele>
                <time>2006-07-30T05:01:29Z</time>
            </trkpt>
            <trkpt lon="99.151462" lat="14.113199">
                <ele>51.087158</ele>
                <time>2006-07-30T05:01:40Z</time>
            </trkpt>
            <trkpt lon="99.152293" lat="14.112916">
                <ele>49.645264</ele>
                <time>2006-07-30T05:01:55Z</time>
            </trkpt>
            <trkpt lon="99.152836" lat="14.112297">
                <ele>50.125977</ele>
                <time>2006-07-30T05:02:10Z</time>
            </trkpt>
            <trkpt lon="99.153308" lat="14.111655">
                <ele>49.164551</ele>
                <time>2006-07-30T05:02:26Z</time>
            </trkpt>
            <trkpt lon="99.153440" lat="14.111408">
                <ele>48.203369</ele>
                <time>2006-07-30T05:02:32Z</time>
            </trkpt>
            <trkpt lon="99.153383" lat="14.111199">
                <ele>48.203369</ele>
                <time>2006-07-30T05:02:38Z</time>
            </trkpt>
            <trkpt lon="99.153217" lat="14.111052">
                <ele>47.722534</ele>
                <time>2006-07-30T05:02:43Z</time>
            </trkpt>
            <trkpt lon="99.152597" lat="14.110383">
                <ele>46.761230</ele>
                <time>2006-07-30T05:03:03Z</time>
            </trkpt>
            <trkpt lon="99.151871" lat="14.109589">
                <ele>46.761230</ele>
                <time>2006-07-30T05:03:27Z</time>
            </trkpt>
            <trkpt lon="99.151102" lat="14.108740">
                <ele>47.241821</ele>
                <time>2006-07-30T05:03:50Z</time>
            </trkpt>
            <trkpt lon="99.150903" lat="14.108537">
                <ele>47.241821</ele>
                <time>2006-07-30T05:03:56Z</time>
            </trkpt>
            <trkpt lon="99.150707" lat="14.108494">
                <ele>46.761230</ele>
                <time>2006-07-30T05:04:01Z</time>
            </trkpt>
            <trkpt lon="99.149849" lat="14.109088">
                <ele>45.799927</ele>
                <time>2006-07-30T05:04:34Z</time>
            </trkpt>
            <trkpt lon="99.149165" lat="14.108476">
                <ele>41.473999</ele>
                <time>2006-07-30T05:05:04Z</time>
            </trkpt>
            <trkpt lon="99.148948" lat="14.108402">
                <ele>40.993408</ele>
                <time>2006-07-30T05:05:12Z</time>
            </trkpt>
            <trkpt lon="99.148909" lat="14.108310">
                <ele>39.551270</ele>
                <time>2006-07-30T05:05:15Z</time>
            </trkpt>
            <trkpt lon="99.148807" lat="14.107664">
                <ele>36.667480</ele>
                <time>2006-07-30T05:05:33Z</time>
            </trkpt>
            <trkpt lon="99.148812" lat="14.107584">
                <ele>34.264160</ele>
                <time>2006-07-30T05:05:45Z</time>
            </trkpt>
        </trkseg>
    </trk>
</gpx>